Time;durP1;ratioP1;P1;durP2;ratioP2;P2;SDS_P1;SDS_P2;PMS_P1;PMS_P2;Temp;Humidity;BMP_temperature;BMP_pressure;BME280_temperature;BME280_humidity;BME280_pressure;Samples;Min_cycle;Max_cycle;Signal;HPM_P1;HPM_P2
2023/07/06 00:01:55;;;;;;;2.90;1.48;;;20.50;99.90;;;;;;7385119;19;20146;-77
2023/07/06 00:04:22;;;;;;;2.05;1.38;;;20.50;99.90;;;;;;7386672;19;20226;-77
2023/07/06 00:06:48;;;;;;;1.88;1.50;;;20.50;99.90;;;;;;7386948;19;20142;-77
2023/07/06 00:09:14;;;;;;;2.53;1.50;;;20.50;99.90;;;;;;7387126;19;20567;-78
2023/07/06 00:11:41;;;;;;;1.38;1.10;;;20.40;99.90;;;;;;7380617;19;20145;-77
2023/07/06 00:14:11;;;;;;;2.90;1.40;;;20.30;99.90;;;;;;7388075;19;20138;-78
2023/07/06 00:16:44;;;;;;;2.72;1.50;;;20.30;99.90;;;;;;7384430;19;20158;-77
2023/07/06 00:19:09;;;;;;;2.55;1.33;;;20.30;99.90;;;;;;7385620;19;20154;-78
2023/07/06 00:21:35;;;;;;;1.90;1.45;;;20.40;99.90;;;;;;7387662;19;20203;-78
2023/07/06 00:24:01;;;;;;;2.80;1.50;;;20.40;99.90;;;;;;7387479;19;20154;-78
2023/07/06 00:26:27;;;;;;;2.25;1.08;;;20.50;99.90;;;;;;7385733;19;20142;-77
2023/07/06 00:28:55;;;;;;;2.08;1.30;;;20.50;99.90;;;;;;7384893;19;20217;-77
2023/07/06 00:31:32;;;;;;;2.45;1.60;;;20.40;99.90;;;;;;7383719;19;20662;-77
2023/07/06 00:34:04;;;;;;;2.63;1.40;;;20.40;99.90;;;;;;7383646;19;20134;-78
2023/07/06 00:36:37;;;;;;;1.88;1.50;;;20.20;99.90;;;;;;7381466;19;20595;-77
2023/07/06 00:39:04;;;;;;;2.25;1.50;;;20.20;99.90;;;;;;7386550;19;20839;-77
2023/07/06 00:41:31;;;;;;;1.77;1.33;;;20.20;99.90;;;;;;7386036;19;20150;-78
2023/07/06 00:43:59;;;;;;;2.35;1.60;;;20.20;99.90;;;;;;7383773;19;20135;-76
2023/07/06 00:46:36;;;;;;;1.90;1.55;;;20.20;99.90;;;;;;7383005;19;20298;-77
2023/07/06 00:49:03;;;;;;;2.10;1.40;;;20.20;99.90;;;;;;7386791;19;20210;-78
2023/07/06 00:51:37;;;;;;;2.22;1.50;;;20.10;99.90;;;;;;7385186;19;20147;-78
2023/07/06 00:54:08;;;;;;;3.20;1.50;;;20.10;99.90;;;;;;7385138;19;20788;-77
2023/07/06 00:56:40;;;;;;;1.73;1.35;;;20.10;99.90;;;;;;7385277;19;20131;-77
2023/07/06 00:59:09;;;;;;;1.50;1.33;;;20.10;99.90;;;;;;7386542;19;20131;-77
2023/07/06 01:01:41;;;;;;;2.63;1.60;;;20.10;99.90;;;;;;7385531;19;20134;-77
2023/07/06 01:04:09;;;;;;;2.83;1.30;;;20.20;99.90;;;;;;7390520;19;20198;-78
2023/07/06 01:06:41;;;;;;;1.92;1.30;;;20.10;99.90;;;;;;7390641;19;20598;-77
2023/07/06 01:09:07;;;;;;;3.63;1.60;;;20.00;99.90;;;;;;7390725;19;20215;-76
2023/07/06 01:11:38;;;;;;;3.85;1.42;;;20.00;99.90;;;;;;7391328;19;20146;-77
2023/07/06 01:14:03;;;;;;;2.47;1.42;;;20.00;99.90;;;;;;7390401;19;20145;-77
2023/07/06 01:16:39;;;;;;;2.63;1.52;;;20.10;99.90;;;;;;7387640;19;20197;-77
2023/07/06 01:19:23;;;;;;;2.95;1.48;;;20.00;99.90;;;;;;7391740;19;20143;-77
2023/07/06 01:21:58;;;;;;;2.30;1.42;;;20.00;99.90;;;;;;7391373;19;20147;-78
2023/07/06 01:24:59;;;;;;;1.52;1.23;;;20.00;99.90;;;;;;7393089;19;20156;-78
2023/07/06 01:27:55;;;;;;;2.80;1.58;;;19.80;99.90;;;;;;7389665;19;20603;-77
2023/07/06 01:30:53;;;;;;;3.83;1.63;;;19.80;99.90;;;;;;7386758;19;20150;-77
2023/07/06 01:33:43;;;;;;;2.30;1.40;;;19.90;99.90;;;;;;7389345;19;20150;-77
2023/07/06 01:36:29;;;;;;;2.17;1.40;;;19.90;99.90;;;;;;7387270;19;20147;-77
2023/07/06 01:39:20;;;;;;;1.50;1.25;;;19.90;99.90;;;;;;7393300;19;20123;-77
2023/07/06 01:42:09;;;;;;;3.33;1.70;;;19.80;99.90;;;;;;7388741;19;20136;-77
2023/07/06 01:44:37;;;;;;;2.53;1.30;;;19.80;99.90;;;;;;7391164;19;20135;-79
2023/07/06 01:47:04;;;;;;;2.33;1.38;;;19.70;99.90;;;;;;7387226;19;20237;-78
2023/07/06 01:49:30;;;;;;;1.95;1.40;;;19.80;99.90;;;;;;7392897;19;20134;-78
2023/07/06 01:52:10;;;;;;;1.23;1.13;;;19.80;99.90;;;;;;7389463;19;20482;-78
2023/07/06 01:54:49;;;;;;;3.22;1.23;;;19.60;99.90;;;;;;7391461;19;20182;-78
2023/07/06 01:57:25;;;;;;;2.83;1.50;;;19.50;99.90;;;;;;7389421;19;20158;-78
2023/07/06 01:59:54;;;;;;;1.58;1.05;;;19.10;99.90;;;;;;7389065;19;20932;-78
2023/07/06 02:02:21;;;;;;;2.22;1.20;;;19.00;99.90;;;;;;7388022;19;20154;-77
2023/07/06 02:04:47;;;;;;;3.08;1.20;;;19.00;99.90;;;;;;7389815;19;20142;-77
2023/07/06 02:07:16;;;;;;;3.17;1.38;;;19.10;99.90;;;;;;7390295;19;20145;-78
2023/07/06 02:09:51;;;;;;;2.53;1.40;;;19.20;99.90;;;;;;7391101;19;20130;-77
2023/07/06 02:12:18;;;;;;;2.03;1.33;;;19.50;99.90;;;;;;7388452;19;20167;-78
2023/07/06 02:14:44;;;;;;;2.42;1.52;;;19.50;99.90;;;;;;7386211;19;20198;-77
2023/07/06 02:17:11;;;;;;;3.05;1.27;;;19.50;99.90;;;;;;7389193;19;20513;-78
2023/07/06 02:19:38;;;;;;;2.28;1.30;;;19.60;99.90;;;;;;7391457;19;20122;-78
2023/07/06 02:22:04;;;;;;;2.50;1.73;;;19.50;99.90;;;;;;7389510;19;20149;-77
2023/07/06 02:24:31;;;;;;;2.63;1.63;;;19.50;99.90;;;;;;7391874;19;20446;-78
2023/07/06 02:26:56;;;;;;;2.38;1.45;;;19.60;99.90;;;;;;7387474;19;20210;-77
2023/07/06 02:29:22;;;;;;;4.85;1.42;;;19.50;99.90;;;;;;7390582;19;20144;-77
2023/07/06 02:31:49;;;;;;;2.83;1.50;;;19.50;99.90;;;;;;7389231;19;20134;-76
2023/07/06 02:34:21;;;;;;;2.33;1.40;;;19.50;99.90;;;;;;7390426;19;20479;-77
2023/07/06 02:36:47;;;;;;;2.17;1.20;;;19.40;99.90;;;;;;7388058;19;20221;-77
2023/07/06 02:39:13;;;;;;;2.45;1.30;;;19.40;99.90;;;;;;7389425;19;20137;-78
2023/07/06 02:41:39;;;;;;;1.67;1.35;;;19.30;99.90;;;;;;7387416;19;20567;-78
2023/07/06 02:44:05;;;;;;;2.85;1.60;;;19.40;99.90;;;;;;7390564;19;20122;-77
2023/07/06 02:46:30;;;;;;;3.13;1.85;;;19.40;99.90;;;;;;7386726;19;20497;-77
2023/07/06 02:48:56;;;;;;;1.73;1.42;;;19.40;99.90;;;;;;7390431;19;20198;-78
2023/07/06 02:51:22;;;;;;;2.28;1.60;;;19.30;99.90;;;;;;7386591;19;20154;-77
2023/07/06 02:53:48;;;;;;;2.83;1.63;;;19.30;99.90;;;;;;7389353;19;20961;-77
2023/07/06 02:56:14;;;;;;;2.03;1.50;;;19.10;99.90;;;;;;7381227;19;20878;-77
2023/07/06 02:58:39;;;;;;;2.40;1.30;;;19.20;99.90;;;;;;7382476;19;20157;-77
2023/07/06 03:01:08;;;;;;;3.17;1.48;;;19.20;99.90;;;;;;7387198;19;20589;-77
2023/07/06 03:03:34;;;;;;;2.63;1.52;;;19.00;99.90;;;;;;7390447;19;20591;-78
2023/07/06 03:06:01;;;;;;;2.30;1.52;;;19.20;99.90;;;;;;7388424;19;20152;-78
2023/07/06 03:08:27;;;;;;;1.80;1.42;;;19.30;99.90;;;;;;7388380;19;20164;-79
2023/07/06 03:10:53;;;;;;;1.67;1.45;;;19.30;99.90;;;;;;7388239;19;20126;-78
2023/07/06 03:13:19;;;;;;;2.53;1.75;;;19.00;99.90;;;;;;7386638;19;20126;-77
2023/07/06 03:15:51;;;;;;;2.92;1.90;;;18.90;99.90;;;;;;7386352;19;20481;-78
2023/07/06 03:18:19;;;;;;;3.65;1.52;;;19.10;99.90;;;;;;7386675;19;20134;-77
2023/07/06 03:20:48;;;;;;;3.97;1.70;;;19.00;99.90;;;;;;7388316;19;20173;-77
2023/07/06 03:23:14;;;;;;;4.70;1.90;;;19.00;99.90;;;;;;7387701;19;20156;-79
2023/07/06 03:25:40;;;;;;;3.33;1.70;;;19.00;99.90;;;;;;7387001;19;20154;-79
2023/07/06 03:28:05;;;;;;;1.92;1.33;;;19.00;99.90;;;;;;7386167;19;20177;-78
2023/07/06 03:30:31;;;;;;;1.80;1.40;;;18.80;99.90;;;;;;7386637;19;20127;-78
2023/07/06 03:33:00;;;;;;;2.72;1.55;;;18.90;99.90;;;;;;7388903;19;20456;-78
2023/07/06 03:35:26;;;;;;;4.07;1.83;;;18.80;99.90;;;;;;7385315;19;20135;-77
2023/07/06 03:37:58;;;;;;;2.72;1.60;;;18.80;99.90;;;;;;7385281;19;20213;-77
2023/07/06 03:40:26;;;;;;;5.68;1.70;;;18.70;99.90;;;;;;7384104;19;20149;-77
2023/07/06 03:42:55;;;;;;;3.70;1.73;;;18.80;99.90;;;;;;7385610;19;20599;-78
2023/07/06 03:45:22;;;;;;;3.15;1.80;;;18.80;99.90;;;;;;7388562;19;20134;-77
2023/07/06 03:47:48;;;;;;;3.95;2.00;;;18.60;99.90;;;;;;7382230;19;20161;-77
2023/07/06 03:50:16;;;;;;;3.40;1.73;;;18.60;99.90;;;;;;7386926;19;20135;-78
2023/07/06 03:52:42;;;;;;;3.97;1.85;;;18.80;99.90;;;;;;7386441;19;20150;-77
2023/07/06 03:55:13;;;;;;;3.38;1.83;;;18.90;99.90;;;;;;7386749;19;20131;-78
2023/07/06 03:57:40;;;;;;;4.45;2.05;;;18.90;99.90;;;;;;7387620;19;20501;-78
2023/07/06 04:00:22;;;;;;;2.88;1.75;;;18.90;99.90;;;;;;7386540;19;20157;-79
2023/07/06 04:03:06;;;;;;;4.65;1.70;;;19.00;99.90;;;;;;7388268;19;20135;-79
2023/07/06 04:05:37;;;;;;;3.90;1.70;;;18.90;99.90;;;;;;7384938;19;20189;-78
2023/07/06 04:08:07;;;;;;;3.67;2.00;;;18.90;99.90;;;;;;7384427;19;20498;-78
2023/07/06 04:10:34;;;;;;;3.45;2.10;;;18.90;99.90;;;;;;7387772;19;20158;-77
2023/07/06 04:13:00;;;;;;;3.88;2.45;;;18.90;99.90;;;;;;7384879;19;20169;-78
2023/07/06 04:15:26;;;;;;;2.20;1.50;;;18.90;99.90;;;;;;7386551;19;20143;-78
2023/07/06 04:17:55;;;;;;;3.78;1.83;;;18.90;99.90;;;;;;7386373;19;20661;-78
2023/07/06 04:20:28;;;;;;;2.50;1.75;;;18.90;99.90;;;;;;7386389;19;20146;-78
2023/07/06 04:22:57;;;;;;;3.92;1.75;;;18.80;99.90;;;;;;7385674;19;20146;-78
2023/07/06 04:25:29;;;;;;;3.03;1.95;;;18.90;99.90;;;;;;7384561;19;20551;-78
2023/07/06 04:28:03;;;;;;;2.35;1.80;;;18.70;99.90;;;;;;7384305;19;20614;-78
2023/07/06 04:30:32;;;;;;;2.38;1.80;;;18.40;99.90;;;;;;7386777;19;20161;-78
2023/07/06 04:32:58;;;;;;;3.42;1.83;;;18.60;99.90;;;;;;7387662;19;20139;-78
2023/07/06 04:35:24;;;;;;;3.35;1.80;;;18.70;99.90;;;;;;7382120;19;20617;-78
2023/07/06 04:37:50;;;;;;;3.20;2.30;;;18.40;99.90;;;;;;7386495;19;20146;-77
2023/07/06 04:40:18;;;;;;;2.90;1.80;;;18.50;99.90;;;;;;7392440;19;20265;-78
2023/07/06 04:42:48;;;;;;;3.75;1.98;;;18.70;99.90;;;;;;7391848;19;20143;-78
2023/07/06 04:45:16;;;;;;;2.72;1.80;;;18.60;99.90;;;;;;7393349;19;20891;-77
2023/07/06 04:47:44;;;;;;;2.92;1.88;;;18.50;99.90;;;;;;7390434;19;20229;-77
2023/07/06 04:50:12;;;;;;;5.07;1.90;;;18.70;99.90;;;;;;7392134;19;20137;-78
2023/07/06 04:52:38;;;;;;;3.53;1.75;;;18.80;99.90;;;;;;7391381;19;20134;-78
2023/07/06 04:55:08;;;;;;;2.92;1.83;;;18.50;99.90;;;;;;7390717;19;20502;-77
2023/07/06 04:57:36;;;;;;;2.38;1.83;;;18.20;99.90;;;;;;7391506;19;20131;-77
2023/07/06 05:00:12;;;;;;;8.85;2.17;;;18.20;99.90;;;;;;7391509;19;20165;-77
2023/07/06 05:02:38;;;;;;;3.75;2.20;;;18.20;99.90;;;;;;7392117;19;20135;-77
2023/07/06 05:05:05;;;;;;;2.38;1.70;;;18.60;99.90;;;;;;7392281;19;20790;-78
2023/07/06 05:07:32;;;;;;;4.85;1.80;;;18.70;99.90;;;;;;7390664;19;20145;-77
2023/07/06 05:09:58;;;;;;;3.53;2.00;;;18.80;99.90;;;;;;7390312;19;20134;-78
2023/07/06 05:12:24;;;;;;;4.20;2.70;;;18.70;99.90;;;;;;7391739;19;20169;-79
2023/07/06 05:14:52;;;;;;;3.83;2.72;;;18.90;99.90;;;;;;7390298;19;20164;-77
2023/07/06 05:17:17;;;;;;;3.22;1.90;;;18.80;99.90;;;;;;7389307;19;20240;-78
2023/07/06 05:19:43;;;;;;;3.72;1.98;;;18.90;99.90;;;;;;7389022;19;20135;-77
2023/07/06 05:22:09;;;;;;;2.38;1.77;;;19.00;99.90;;;;;;7389588;19;20221;-78
2023/07/06 05:24:34;;;;;;;5.50;1.92;;;19.10;99.90;;;;;;7389969;19;20144;-78
2023/07/06 05:27:00;;;;;;;3.03;2.00;;;19.20;99.90;;;;;;7387904;19;20771;-77
2023/07/06 05:29:26;;;;;;;3.50;2.10;;;19.00;99.90;;;;;;7389344;19;20161;-77
2023/07/06 05:31:52;;;;;;;3.83;1.92;;;19.10;99.90;;;;;;7389106;19;20583;-77
2023/07/06 05:34:17;;;;;;;4.50;2.47;;;19.10;99.90;;;;;;7388824;19;20510;-76
2023/07/06 05:36:43;;;;;;;4.38;2.75;;;19.00;99.90;;;;;;7387770;19;20198;-76
2023/07/06 05:39:09;;;;;;;4.40;2.83;;;18.90;99.90;;;;;;7387304;19;20479;-76
2023/07/06 05:41:36;;;;;;;4.53;2.38;;;18.80;99.90;;;;;;7384170;19;20205;-76
2023/07/06 05:44:01;;;;;;;4.40;1.90;;;18.80;99.90;;;;;;7388360;19;20157;-75
2023/07/06 05:46:27;;;;;;;3.05;2.05;;;18.80;99.90;;;;;;7384001;19;20147;-76
2023/07/06 05:48:53;;;;;;;3.38;1.95;;;18.80;99.90;;;;;;7388733;19;20141;-76
2023/07/06 05:51:19;;;;;;;3.92;2.15;;;18.80;99.90;;;;;;7389170;19;20226;-76
2023/07/06 05:53:48;;;;;;;4.82;2.20;;;18.90;99.90;;;;;;7389650;19;20158;-76
2023/07/06 05:56:15;;;;;;;4.80;2.13;;;18.90;99.90;;;;;;7387698;19;20254;-76
2023/07/06 05:58:44;;;;;;;4.80;2.00;;;18.90;99.90;;;;;;7393434;19;20198;-76
2023/07/06 06:01:11;;;;;;;3.45;2.17;;;18.90;99.90;;;;;;7387954;19;20493;-75
2023/07/06 06:03:37;;;;;;;3.03;2.00;;;19.00;99.90;;;;;;7387416;19;20134;-77
2023/07/06 06:06:03;;;;;;;4.03;2.17;;;19.10;99.90;;;;;;7388551;19;20477;-76
2023/07/06 06:08:29;;;;;;;3.47;2.20;;;19.20;99.90;;;;;;7385281;19;20129;-76
2023/07/06 06:10:55;;;;;;;3.17;2.05;;;19.30;99.90;;;;;;7386463;19;20657;-78
2023/07/06 06:13:22;;;;;;;2.97;1.88;;;19.40;99.90;;;;;;7389438;19;20134;-76
2023/07/06 06:15:48;;;;;;;3.67;2.28;;;19.50;99.90;;;;;;7386840;19;20139;-75
2023/07/06 06:18:14;;;;;;;4.22;2.50;;;20.10;99.90;;;;;;7386080;19;20164;-76
2023/07/06 06:20:42;;;;;;;5.25;3.22;;;22.20;99.90;;;;;;7388911;19;20233;-77
2023/07/06 06:23:10;;;;;;;4.90;2.92;;;23.10;99.90;;;;;;7389185;19;20455;-76
2023/07/06 06:25:38;;;;;;;3.42;2.08;;;23.10;99.90;;;;;;7387305;19;20134;-76
2023/07/06 06:28:05;;;;;;;3.05;1.98;;;24.90;99.90;;;;;;7384540;19;20612;-76
2023/07/06 06:30:31;;;;;;;3.20;2.10;;;26.50;97.50;;;;;;7387680;19;20146;-76
2023/07/06 06:32:57;;;;;;;5.25;2.08;;;28.40;94.50;;;;;;7388724;19;20141;-75
2023/07/06 06:35:28;;;;;;;5.70;2.10;;;30.20;91.00;;;;;;7387296;19;20165;-77
2023/07/06 06:37:57;;;;;;;3.30;2.08;;;30.40;87.40;;;;;;7384282;19;20149;-77
2023/07/06 06:40:24;;;;;;;3.08;2.38;;;30.80;85.90;;;;;;7390487;19;20147;-78
2023/07/06 06:42:50;;;;;;;2.50;1.90;;;31.20;82.30;;;;;;7386718;19;20135;-76
2023/07/06 06:45:19;;;;;;;4.80;2.55;;;31.70;79.50;;;;;;7384788;19;20598;-78
2023/07/06 06:47:45;;;;;;;2.38;1.67;;;32.30;77.10;;;;;;7385240;19;20605;-77
2023/07/06 06:50:14;;;;;;;3.35;1.90;;;32.60;73.60;;;;;;7386220;19;20138;-76
2023/07/06 06:52:46;;;;;;;2.17;1.60;;;32.50;72.50;;;;;;7386731;19;20146;-77
2023/07/06 06:55:13;;;;;;;3.75;1.67;;;32.30;71.90;;;;;;7387267;19;20135;-77
2023/07/06 06:57:39;;;;;;;2.97;1.63;;;33.40;67.20;;;;;;7387174;19;20153;-76
2023/07/06 07:00:09;;;;;;;5.55;1.90;;;34.00;65.90;;;;;;7385551;19;20214;-77
2023/07/06 07:02:38;;;;;;;2.35;1.80;;;33.80;64.70;;;;;;7388469;19;20138;-74
2023/07/06 07:05:05;;;;;;;1.85;1.55;;;32.70;65.70;;;;;;7385839;19;20168;-76
2023/07/06 07:07:31;;;;;;;3.35;2.25;;;31.90;66.80;;;;;;7387999;19;20162;-75
2023/07/06 07:09:59;;;;;;;2.70;2.00;;;31.10;67.70;;;;;;7385121;19;20158;-76
2023/07/06 07:12:25;;;;;;;3.42;1.67;;;30.70;68.00;;;;;;7388916;19;20143;-77
2023/07/06 07:14:50;;;;;;;5.15;1.92;;;29.70;70.10;;;;;;7385521;19;20466;-75
2023/07/06 07:17:16;;;;;;;5.40;2.35;;;29.30;69.80;;;;;;7386756;19;20142;-74
2023/07/06 07:19:42;;;;;;;4.93;1.70;;;28.70;71.90;;;;;;7387182;19;20168;-75
2023/07/06 07:22:08;;;;;;;3.88;1.45;;;28.40;71.60;;;;;;7389157;19;20196;-75
2023/07/06 07:24:34;;;;;;;2.85;1.30;;;28.10;72.50;;;;;;7385481;19;20470;-75
2023/07/06 07:27:00;;;;;;;1.95;1.42;;;28.50;71.90;;;;;;7386289;19;20611;-74
2023/07/06 07:29:26;;;;;;;2.63;1.55;;;28.80;72.00;;;;;;7388468;19;20165;-75
2023/07/06 07:31:52;;;;;;;4.18;2.00;;;28.50;71.70;;;;;;7386456;19;20145;-76
2023/07/06 07:34:19;;;;;;;4.68;1.55;;;28.10;72.20;;;;;;7385284;19;20489;-75
2023/07/06 07:36:45;;;;;;;1.67;1.42;;;28.00;72.70;;;;;;7383073;19;20149;-75
2023/07/06 07:39:11;;;;;;;2.22;1.23;;;27.70;72.50;;;;;;7389268;19;20130;-76
2023/07/06 07:41:37;;;;;;;2.60;1.55;;;27.50;73.30;;;;;;7386603;19;20598;-76
2023/07/06 07:44:03;;;;;;;5.10;3.63;;;27.30;74.40;;;;;;7386132;19;20145;-76
2023/07/06 07:46:29;;;;;;;17.27;14.30;;;27.30;73.70;;;;;;7383438;19;20701;-75
2023/07/06 07:48:56;;;;;;;3.28;1.50;;;27.20;74.70;;;;;;7385553;19;20146;-75
2023/07/06 07:51:25;;;;;;;2.95;1.50;;;27.60;73.20;;;;;;7385668;19;20138;-74
2023/07/06 07:53:53;;;;;;;2.25;1.40;;;27.20;73.20;;;;;;7386644;19;20135;-75
2023/07/06 07:56:20;;;;;;;2.75;1.55;;;27.10;73.20;;;;;;7381549;19;20209;-76
2023/07/06 07:58:48;;;;;;;2.47;1.05;;;27.00;73.10;;;;;;7386994;19;20139;-75
2023/07/06 08:01:16;;;;;;;4.38;3.63;;;27.30;73.30;;;;;;7386516;19;20130;-75
2023/07/06 08:03:43;;;;;;;3.20;1.58;;;27.60;72.40;;;;;;7385527;19;20149;-80
2023/07/06 08:06:11;;;;;;;2.42;1.38;;;28.40;71.80;;;;;;7384129;19;20142;-75
2023/07/06 08:08:38;;;;;;;1.85;1.13;;;28.90;70.20;;;;;;7387531;19;20149;-76
2023/07/06 08:11:06;;;;;;;2.08;1.40;;;28.80;69.80;;;;;;7385544;19;20407;-77
2023/07/06 08:13:34;;;;;;;3.20;1.40;;;28.50;69.80;;;;;;7387649;19;20474;-76
2023/07/06 08:16:00;;;;;;;2.58;1.30;;;27.90;70.20;;;;;;7383935;19;20142;-76
2023/07/06 08:18:28;;;;;;;2.47;1.50;;;27.60;71.90;;;;;;7385080;19;20599;-77
2023/07/06 08:20:54;;;;;;;3.65;1.90;;;27.40;71.90;;;;;;7388106;19;20141;-77
2023/07/06 08:23:25;;;;;;;3.15;1.50;;;27.20;72.30;;;;;;7385192;19;20123;-76
2023/07/06 08:25:51;;;;;;;6.53;1.60;;;27.10;73.00;;;;;;7382660;19;20171;-76
2023/07/06 08:28:21;;;;;;;2.85;1.50;;;27.00;73.00;;;;;;7384659;19;20158;-77
2023/07/06 08:30:49;;;;;;;2.83;1.50;;;26.80;73.90;;;;;;7383633;19;20694;-79
2023/07/06 08:33:15;;;;;;;2.90;1.55;;;27.30;74.30;;;;;;7386116;19;20526;-75
2023/07/06 08:35:45;;;;;;;2.83;1.88;;;28.00;73.10;;;;;;7380685;19;20138;-75
2023/07/06 08:38:12;;;;;;;3.17;1.55;;;28.20;71.40;;;;;;7385482;19;20158;-77
2023/07/06 08:40:40;;;;;;;2.47;1.70;;;28.00;71.60;;;;;;7384459;19;20153;-76
2023/07/06 08:43:13;;;;;;;3.08;1.52;;;27.60;71.50;;;;;;7384122;19;20663;-75
2023/07/06 08:45:42;;;;;;;4.47;2.15;;;27.20;72.90;;;;;;7384972;19;20145;-78
2023/07/06 08:48:16;;;;;;;2.58;1.50;;;27.20;72.80;;;;;;7385300;19;20491;-77
2023/07/06 08:50:45;;;;;;;2.47;1.50;;;27.30;72.70;;;;;;7383091;19;20159;-78
2023/07/06 08:53:14;;;;;;;2.88;1.60;;;27.20;72.70;;;;;;7384137;19;20234;-76
2023/07/06 08:55:42;;;;;;;4.07;1.60;;;27.30;72.80;;;;;;7382582;19;20130;-77
2023/07/06 08:58:14;;;;;;;3.90;1.42;;;27.20;72.90;;;;;;7383550;19;20728;-77
2023/07/06 09:00:40;;;;;;;3.58;1.63;;;27.00;72.90;;;;;;7384035;19;20165;-76
2023/07/06 09:03:08;;;;;;;3.22;1.90;;;26.80;73.40;;;;;;7386243;19;20139;-77
2023/07/06 09:05:38;;;;;;;2.33;1.58;;;26.50;74.20;;;;;;7384725;19;20139;-77
2023/07/06 09:08:05;;;;;;;1.92;1.30;;;26.40;74.00;;;;;;7379192;19;20225;-78
2023/07/06 09:10:31;;;;;;;3.92;1.60;;;26.00;73.40;;;;;;7382978;19;20131;-76
2023/07/06 09:13:22;;;;;;;2.15;1.60;;;25.90;74.00;;;;;;7381317;19;20159;-76
2023/07/06 09:15:54;;;;;;;2.88;1.60;;;26.20;75.20;;;;;;7381499;19;20143;-77
2023/07/06 09:18:20;;;;;;;4.65;1.80;;;26.30;73.80;;;;;;7381972;19;20278;-75
2023/07/06 09:20:47;;;;;;;2.72;1.75;;;26.00;74.50;;;;;;7382632;19;20180;-78
2023/07/06 09:23:14;;;;;;;5.90;1.70;;;25.60;75.20;;;;;;7383401;19;20174;-78
2023/07/06 09:25:44;;;;;;;1.50;1.20;;;25.20;76.00;;;;;;7388022;19;20150;-76
2023/07/06 09:28:16;;;;;;;2.25;1.40;;;25.30;76.30;;;;;;7392061;19;20134;-76
2023/07/06 09:30:44;;;;;;;2.63;2.35;;;25.70;75.30;;;;;;7390712;19;20151;-76
2023/07/06 09:33:25;;;;;;;4.85;2.22;;;26.10;73.20;;;;;;7381334;19;20232;-76
2023/07/06 09:35:56;;;;;;;2.85;1.98;;;26.40;73.00;;;;;;7386805;19;20175;-77
2023/07/06 09:38:25;;;;;;;2.83;1.42;;;26.50;71.20;;;;;;7387226;19;20134;-76
2023/07/06 09:40:52;;;;;;;3.50;1.70;;;25.90;71.40;;;;;;7390773;19;20146;-77
2023/07/06 09:43:29;;;;;;;3.33;1.60;;;25.60;72.90;;;;;;7389258;19;20142;-79
2023/07/06 09:45:59;;;;;;;1.80;1.38;;;25.40;75.10;;;;;;7388295;19;20229;-78
2023/07/06 09:48:27;;;;;;;4.32;1.65;;;25.30;75.70;;;;;;7391363;19;20494;-77
2023/07/06 09:51:06;;;;;;;5.85;2.13;;;25.30;75.50;;;;;;7389018;19;20467;-79
2023/07/06 09:53:36;;;;;;;1.65;1.30;;;24.80;76.30;;;;;;7389024;19;20765;-78
2023/07/06 09:56:08;;;;;;;3.42;1.48;;;24.70;77.20;;;;;;7387193;19;20139;-79
2023/07/06 09:58:34;;;;;;;3.10;1.80;;;24.60;77.50;;;;;;7388813;19;20314;-77
2023/07/06 10:01:14;;;;;;;2.00;1.58;;;24.60;77.40;;;;;;7388211;19;20467;-78
2023/07/06 10:04:01;;;;;;;3.25;2.15;;;24.40;77.60;;;;;;7387399;19;20209;-77
2023/07/06 10:06:55;;;;;;;2.35;1.58;;;24.30;78.10;;;;;;7385668;19;20157;-77
2023/07/06 10:09:32;;;;;;;2.55;1.88;;;24.20;77.60;;;;;;7389390;19;20151;-77
2023/07/06 10:12:12;;;;;;;2.88;1.60;;;24.40;77.90;;;;;;7387938;19;20483;-77
2023/07/06 10:14:49;;;;;;;3.97;2.03;;;24.70;77.40;;;;;;7387296;19;22192;-77
2023/07/06 10:17:38;;;;;;;2.20;1.60;;;25.00;76.90;;;;;;7388712;19;20138;-77
2023/07/06 10:20:21;;;;;;;2.80;1.90;;;25.20;75.70;;;;;;7385716;19;20135;-78
2023/07/06 10:23:28;;;;;;;2.00;1.75;;;25.30;76.10;;;;;;7387620;19;20138;-78
2023/07/06 10:26:07;;;;;;;3.00;1.60;;;25.30;75.00;;;;;;7386784;19;20204;-77
2023/07/06 10:28:43;;;;;;;4.10;3.03;;;25.40;75.00;;;;;;7387505;19;20201;-78
2023/07/06 10:31:16;;;;;;;1.98;1.33;;;25.50;73.10;;;;;;7386732;19;20154;-81
2023/07/06 10:33:47;;;;;;;5.03;1.50;;;25.50;72.60;;;;;;7389615;19;20477;-81
2023/07/06 10:36:15;;;;;;;4.35;1.92;;;25.30;73.20;;;;;;7383120;19;20139;-79
2023/07/06 10:38:41;;;;;;;4.57;1.90;;;25.30;73.50;;;;;;7388992;19;20134;-78
2023/07/06 10:41:10;;;;;;;2.22;1.40;;;25.50;74.60;;;;;;7386703;19;20544;-78
2023/07/06 10:43:38;;;;;;;2.60;1.55;;;25.70;73.90;;;;;;7385379;19;20153;-78
2023/07/06 10:46:35;;;;;;;1.92;1.48;;;25.90;73.20;;;;;;7386233;19;20150;-79
2023/07/06 10:49:26;;;;;;;2.00;1.63;;;25.90;73.20;;;;;;7389436;19;20130;-81
2023/07/06 10:51:55;;;;;;;2.75;2.00;;;25.90;73.40;;;;;;7387156;19;20153;-79
2023/07/06 10:54:24;;;;;;;5.00;3.10;;;26.10;73.30;;;;;;7388455;19;20143;-80
2023/07/06 10:57:10;;;;;;;3.25;1.73;;;26.10;72.50;;;;;;7385182;19;20137;-74
2023/07/06 10:59:39;;;;;;;2.72;1.88;;;25.70;72.70;;;;;;7387161;19;20173;-77
2023/07/06 11:02:44;;;;;;;2.38;1.90;;;25.40;73.70;;;;;;7384197;19;20671;-77
2023/07/06 11:05:19;;;;;;;5.40;1.48;;;25.40;74.80;;;;;;7386834;19;20134;-78
2023/07/06 11:07:50;;;;;;;3.20;2.38;;;25.20;74.40;;;;;;7386652;19;20167;-78
2023/07/06 11:10:36;;;;;;;4.22;2.15;;;25.00;74.60;;;;;;7384884;19;20217;-84
2023/07/06 11:13:04;;;;;;;4.07;1.55;;;25.00;78.90;;;;;;7385726;19;20143;-79
2023/07/06 11:15:40;;;;;;;3.78;1.50;;;25.10;76.40;;;;;;7384139;19;20522;-78
2023/07/06 11:18:18;;;;;;;2.95;1.50;;;25.10;75.60;;;;;;7385165;19;20564;-79
2023/07/06 11:21:17;;;;;;;2.20;1.75;;;24.90;76.80;;;;;;7389250;19;20151;-82
2023/07/06 11:23:50;;;;;;;2.65;1.80;;;24.90;76.10;;;;;;7379522;19;20158;-78
2023/07/06 11:26:47;;;;;;;3.08;2.22;;;25.20;75.00;;;;;;7384091;19;20154;-78
2023/07/06 11:29:14;;;;;;;2.42;1.67;;;25.30;75.30;;;;;;7387244;19;20138;-77
2023/07/06 11:31:58;;;;;;;2.78;1.90;;;25.30;77.50;;;;;;7386513;19;20134;-78
2023/07/06 11:34:32;;;;;;;2.58;1.90;;;25.30;76.30;;;;;;7378915;19;20475;-77
2023/07/06 11:37:54;;;;;;;5.03;1.50;;;25.20;75.90;;;;;;7383915;19;20134;-79
2023/07/06 11:40:33;;;;;;;3.35;1.38;;;25.20;74.70;;;;;;7380556;19;20157;-77
2023/07/06 11:43:12;;;;;;;2.17;1.40;;;25.10;74.50;;;;;;7384538;19;20753;-77
2023/07/06 11:45:52;;;;;;;6.35;1.70;;;25.20;74.50;;;;;;7387612;19;20142;-76
2023/07/06 11:48:35;;;;;;;2.50;1.77;;;25.40;74.20;;;;;;7384255;19;20150;-78
2023/07/06 11:51:03;;;;;;;2.72;1.75;;;25.50;72.80;;;;;;7386515;19;20508;-78
2023/07/06 11:53:42;;;;;;;3.50;1.67;;;25.50;73.00;;;;;;7386423;19;20150;-76
2023/07/06 11:56:33;;;;;;;3.88;2.15;;;25.50;72.70;;;;;;7383970;19;20143;-78
2023/07/06 11:59:04;;;;;;;4.53;2.00;;;25.40;73.30;;;;;;7385453;19;20574;-78
2023/07/06 12:01:40;;;;;;;2.90;1.60;;;25.40;73.50;;;;;;7385232;19;20154;-78
2023/07/06 12:04:21;;;;;;;4.97;1.92;;;25.30;74.40;;;;;;7387490;19;20142;-77
2023/07/06 12:06:48;;;;;;;2.72;1.70;;;25.40;74.00;;;;;;7384977;19;20612;-79
2023/07/06 12:09:19;;;;;;;2.75;1.83;;;25.40;73.40;;;;;;7385864;19;20204;-76
2023/07/06 12:12:07;;;;;;;2.53;2.05;;;25.30;73.80;;;;;;7384241;19;20135;-78
2023/07/06 12:14:34;;;;;;;4.50;1.98;;;25.30;73.50;;;;;;7386484;19;20131;-77
2023/07/06 12:17:05;;;;;;;3.83;1.67;;;25.40;73.20;;;;;;7387713;19;20131;-77
2023/07/06 12:19:31;;;;;;;4.38;2.30;;;25.60;72.80;;;;;;7388934;19;20142;-77
2023/07/06 12:21:58;;;;;;;2.38;1.70;;;25.70;72.40;;;;;;7387505;19;20150;-79
2023/07/06 12:24:27;;;;;;;3.33;2.25;;;25.70;71.80;;;;;;7385652;19;20601;-77
2023/07/06 12:26:56;;;;;;;2.75;2.05;;;25.40;75.80;;;;;;7384418;19;20158;-78
2023/07/06 12:29:27;;;;;;;2.13;1.65;;;25.80;72.30;;;;;;7386111;19;20160;-77
2023/07/06 12:31:57;;;;;;;1.55;1.40;;;25.90;74.10;;;;;;7385231;19;20159;-78
2023/07/06 12:34:30;;;;;;;1.83;1.30;;;26.10;72.00;;;;;;7386446;19;20145;-77
2023/07/06 12:37:02;;;;;;;3.45;1.60;;;26.10;72.70;;;;;;7381097;19;20143;-80
2023/07/06 12:39:34;;;;;;;2.67;1.58;;;26.10;71.70;;;;;;7382426;19;20154;-79
2023/07/06 12:42:00;;;;;;;3.45;1.75;;;26.10;72.30;;;;;;7385434;19;20146;-79
2023/07/06 12:44:27;;;;;;;3.00;1.80;;;26.40;70.80;;;;;;7384848;19;20134;-77
2023/07/06 12:46:58;;;;;;;3.13;1.73;;;26.30;70.50;;;;;;7382086;19;20178;-79
2023/07/06 12:49:24;;;;;;;2.47;1.80;;;26.30;70.80;;;;;;7381993;19;20155;-78
2023/07/06 12:51:54;;;;;;;4.07;2.70;;;26.40;69.90;;;;;;7383340;19;20154;-77
2023/07/06 12:54:23;;;;;;;3.05;1.67;;;26.40;69.80;;;;;;7384213;19;20537;-78
2023/07/06 12:57:03;;;;;;;2.45;1.70;;;26.20;70.50;;;;;;7380779;19;20267;-80
2023/07/06 12:59:36;;;;;;;2.80;1.45;;;25.90;71.20;;;;;;7386138;19;20141;-80
2023/07/06 13:02:22;;;;;;;1.92;1.50;;;25.80;71.00;;;;;;7390167;19;20146;-78
2023/07/06 13:04:49;;;;;;;2.53;1.85;;;25.50;71.60;;;;;;7390212;19;20150;-79
2023/07/06 13:07:25;;;;;;;2.35;1.80;;;25.50;72.20;;;;;;7390250;19;20134;-79